Time;durP1;ratioP1;P1;durP2;ratioP2;P2;SDS_P1;SDS_P2;PMS_P1;PMS_P2;Temp;Humidity;BMP_temperature;BMP_pressure;BME280_temperature;BME280_humidity;BME280_pressure;Samples;Min_cycle;Max_cycle;Signal;HPM_P1;HPM_P2
2021/06/20 00:01:33;;;;;;;5.30;1.80;;;;;;;23.51;59.28;100676.22;1707921;82;21462;-57
2021/06/20 00:04:00;;;;;;;9.35;2.22;;;;;;;23.47;59.30;100675.47;1709286;82;21127;-57
2021/06/20 00:06:35;;;;;;;4.95;2.02;;;;;;;23.43;59.48;100672.89;1731018;80;21044;-58
2021/06/20 00:09:08;;;;;;;6.43;1.63;;;;;;;23.40;59.65;100676.78;1706852;82;21106;-57
2021/06/20 00:11:38;;;;;;;4.80;1.80;;;;;;;23.44;59.55;100679.41;1708334;82;21096;-57
2021/06/20 00:14:05;;;;;;;5.62;2.08;;;;;;;23.43;59.67;100680.42;1724893;81;21083;-57
2021/06/20 00:16:32;;;;;;;7.67;1.95;;;;;;;23.40;59.75;100682.16;1719928;81;21799;-56
2021/06/20 00:18:58;;;;;;;5.90;2.00;;;;;;;23.40;59.77;100681.34;1694076;81;21180;-56
2021/06/20 00:21:25;;;;;;;7.80;1.67;;;;;;;23.35;59.79;100674.73;1718009;81;21087;-56
2021/06/20 00:23:52;;;;;;;7.75;1.70;;;;;;;23.32;59.81;100676.98;1719320;81;21421;-56
2021/06/20 00:26:19;;;;;;;4.00;1.60;;;;;;;23.29;59.98;100676.03;1722370;81;21146;-57
2021/06/20 00:28:47;;;;;;;3.67;1.52;;;;;;;23.26;60.10;100671.06;1709052;82;21115;-57
2021/06/20 00:31:15;;;;;;;5.00;1.82;;;;;;;23.22;60.13;100671.98;1723106;81;21384;-56
2021/06/20 00:33:43;;;;;;;9.38;1.62;;;;;;;23.21;60.31;100667.63;1719426;81;21585;-56
2021/06/20 00:36:10;;;;;;;5.62;1.90;;;;;;;23.24;60.41;100664.55;1694121;81;21095;-57
2021/06/20 00:38:37;;;;;;;7.95;2.40;;;;;;;23.26;60.45;100668.38;1722978;81;21486;-58
2021/06/20 00:41:05;;;;;;;6.33;1.87;;;;;;;23.26;61.56;100669.72;1721040;81;21125;-58
2021/06/20 00:43:31;;;;;;;15.65;3.05;;;;;;;23.23;61.96;100665.56;1720352;81;21126;-58
2021/06/20 00:45:58;;;;;;;4.90;2.27;;;;;;;23.21;62.18;100672.17;1719506;81;22860;-57
2021/06/20 00:48:25;;;;;;;5.70;2.05;;;;;;;23.19;62.13;100673.19;1722921;81;21059;-57
2021/06/20 00:50:52;;;;;;;4.47;1.92;;;;;;;23.21;61.98;100666.80;1721935;81;21091;-58
2021/06/20 00:53:19;;;;;;;5.17;1.87;;;;;;;23.18;61.99;100670.21;1700655;82;21323;-57
2021/06/20 00:55:49;;;;;;;4.42;1.82;;;;;;;23.15;61.86;100666.58;1726693;80;21089;-57
2021/06/20 00:58:14;;;;;;;8.33;1.87;;;;;;;23.18;61.43;100664.84;1750331;80;21110;-57
2021/06/20 01:00:41;;;;;;;3.77;1.57;;;;;;;23.23;61.28;100664.74;1749225;80;21130;-57
2021/06/20 01:03:07;;;;;;;6.22;1.75;;;;;;;23.24;60.91;100670.44;1726265;80;21565;-57
2021/06/20 01:05:34;;;;;;;3.20;1.40;;;;;;;23.23;60.68;100672.27;1707983;82;20999;-56
2021/06/20 01:08:04;;;;;;;5.37;1.67;;;;;;;23.23;60.71;100674.95;1746697;80;21250;-58
2021/06/20 01:10:35;;;;;;;4.35;1.55;;;;;;;23.21;60.73;100678.89;1723774;80;21105;-57
2021/06/20 01:12:59;;;;;;;5.62;1.52;;;;;;;23.19;60.95;100681.77;1747443;80;21099;-56
2021/06/20 01:15:25;;;;;;;4.35;1.62;;;;;;;23.17;60.49;100677.12;1727688;80;21082;-57
2021/06/20 01:17:52;;;;;;;3.55;1.35;;;;;;;23.15;60.59;100681.34;1749294;80;21137;-57
2021/06/20 01:20:19;;;;;;;3.33;1.50;;;;;;;23.12;60.80;100683.07;1747846;80;21854;-57
2021/06/20 01:22:48;;;;;;;5.45;1.70;;;;;;;23.14;60.79;100674.30;1749591;80;21146;-57
2021/06/20 01:25:20;;;;;;;5.87;1.77;;;;;;;23.18;60.40;100678.75;1745911;80;21122;-57
2021/06/20 01:27:53;;;;;;;4.00;1.67;;;;;;;23.21;60.45;100691.78;1747920;80;21063;-58
2021/06/20 01:30:27;;;;;;;4.10;1.75;;;;;;;23.22;60.39;100695.28;1741909;80;21106;-58
2021/06/20 01:32:54;;;;;;;5.40;1.67;;;;;;;23.18;60.39;100693.02;1746345;80;21100;-58
2021/06/20 01:35:21;;;;;;;5.47;1.95;;;;;;;23.14;60.41;100698.45;1746713;80;21023;-57
2021/06/20 01:37:48;;;;;;;5.42;1.65;;;;;;;23.13;60.68;100702.19;1747419;80;21123;-57
2021/06/20 01:40:16;;;;;;;3.45;1.55;;;;;;;23.12;60.92;100704.55;1749733;80;21094;-57
2021/06/20 01:42:43;;;;;;;6.33;2.02;;;;;;;23.09;60.77;100703.59;1750463;80;21591;-57
2021/06/20 01:45:12;;;;;;;5.62;1.70;;;;;;;23.08;60.79;100701.95;1747640;80;21182;-57
2021/06/20 01:47:38;;;;;;;3.15;1.37;;;;;;;23.11;60.98;100692.66;1748711;80;21517;-57
2021/06/20 01:50:15;;;;;;;4.33;1.27;;;;;;;23.17;60.76;100691.88;1747559;80;21047;-57
2021/06/20 01:52:41;;;;;;;5.28;1.80;;;;;;;23.21;60.22;100693.65;1761151;79;22558;-57
2021/06/20 01:55:09;;;;;;;4.60;1.80;;;;;;;23.19;60.23;100698.69;1742236;79;21074;-57
2021/06/20 01:57:38;;;;;;;3.87;1.60;;;;;;;23.19;60.36;100695.19;1768135;79;21153;-57
2021/06/20 02:00:09;;;;;;;7.58;1.70;;;;;;;23.19;60.00;100691.98;1767246;79;21054;-57
2021/06/20 02:02:42;;;;;;;5.10;1.98;;;;;;;23.16;60.11;100689.69;1767619;79;21112;-56
2021/06/20 02:05:10;;;;;;;4.78;1.80;;;;;;;23.13;60.22;100684.74;1767759;79;21069;-57
2021/06/20 02:07:38;;;;;;;3.85;1.40;;;;;;;23.11;60.01;100682.75;1728988;80;21091;-57
2021/06/20 02:10:08;;;;;;;6.08;1.82;;;;;;;23.05;60.08;100684.87;1703404;82;21160;-57
2021/06/20 02:12:35;;;;;;;4.00;1.75;;;;;;;23.01;60.00;100678.22;1730047;80;21099;-57
2021/06/20 02:15:09;;;;;;;5.17;1.60;;;;;;;23.02;60.14;100677.20;1703283;82;21049;-57
2021/06/20 02:17:38;;;;;;;5.10;1.92;;;;;;;23.03;60.31;100673.48;1700783;82;21563;-57
2021/06/20 02:20:11;;;;;;;4.83;1.77;;;;;;;22.99;60.29;100674.39;1703188;82;21097;-57
2021/06/20 02:22:38;;;;;;;7.72;2.10;;;;;;;22.94;60.68;100666.11;1704773;82;21776;-56
2021/06/20 02:25:07;;;;;;;6.35;1.75;;;;;;;22.87;61.00;100674.64;1702635;82;21685;-57
2021/06/20 02:27:33;;;;;;;5.20;1.62;;;;;;;22.80;60.92;100683.98;1702846;80;21112;-57
2021/06/20 02:30:00;;;;;;;4.25;1.80;;;;;;;22.75;61.14;100687.77;1705653;80;21052;-57
2021/06/20 02:32:27;;;;;;;5.70;1.47;;;;;;;22.72;61.07;100682.78;1703689;82;21041;-57
2021/06/20 02:34:54;;;;;;;4.50;1.52;;;;;;;22.74;60.90;100678.05;1704066;82;21239;-57
2021/06/20 02:37:21;;;;;;;5.22;2.22;;;;;;;22.74;60.93;100678.56;1698103;82;21541;-57
2021/06/20 02:39:48;;;;;;;7.72;2.08;;;;;;;22.68;60.88;100676.17;1732848;80;21094;-57
2021/06/20 02:42:15;;;;;;;5.33;1.85;;;;;;;22.66;61.11;100673.35;1706179;82;21527;-57
2021/06/20 02:44:42;;;;;;;3.25;1.60;;;;;;;22.63;61.18;100671.38;1678409;82;21683;-57
2021/06/20 02:47:09;;;;;;;5.35;1.45;;;;;;;22.60;61.14;100663.72;1704273;82;21108;-57
2021/06/20 02:49:37;;;;;;;6.53;1.95;;;;;;;22.55;61.42;100654.09;1684402;83;21060;-57
2021/06/20 02:52:04;;;;;;;7.15;1.80;;;;;;;22.56;61.73;100654.91;1703388;82;21149;-57
2021/06/20 02:54:31;;;;;;;7.15;1.98;;;;;;;22.58;61.83;100655.57;1741561;80;21573;-57
2021/06/20 02:56:58;;;;;;;4.85;1.70;;;;;;;22.57;61.68;100669.47;1741661;80;21122;-56
2021/06/20 02:59:25;;;;;;;3.52;1.55;;;;;;;22.56;61.71;100671.86;1745619;80;21173;-56
2021/06/20 03:01:52;;;;;;;8.28;2.10;;;;;;;22.55;61.91;100672.05;1756198;79;21072;-57
2021/06/20 03:04:19;;;;;;;5.65;2.00;;;;;;;22.53;61.95;100670.89;1745913;80;21411;-57
2021/06/20 03:18:11;;;;;;;3.27;1.50;;;;;;;24.04;57.37;100709.17;1812631;77;22901;-57
2021/06/20 03:20:37;;;;;;;4.03;1.80;;;;;;;24.17;56.66;100719.10;1710074;80;21578;-58
2021/06/20 03:23:07;;;;;;;4.58;1.87;;;;;;;24.09;56.45;100716.60;1707834;82;21122;-58
2021/06/20 03:25:32;;;;;;;5.80;1.98;;;;;;;23.98;56.54;100720.73;1725420;81;21074;-58
2021/06/20 03:27:58;;;;;;;4.70;1.80;;;;;;;23.88;56.83;100716.26;1723925;81;21109;-58
2021/06/20 03:30:25;;;;;;;3.47;1.57;;;;;;;23.77;56.88;100719.00;1721843;81;21136;-56
2021/06/20 03:32:52;;;;;;;4.62;1.72;;;;;;;23.68;57.42;100708.92;1722316;81;21111;-57
2021/06/20 03:35:18;;;;;;;3.85;1.80;;;;;;;23.57;57.45;100708.18;1728121;81;22208;-58
2021/06/20 03:37:45;;;;;;;7.35;1.77;;;;;;;23.42;57.21;100696.23;1724169;81;21556;-55
2021/06/20 03:40:14;;;;;;;5.55;2.08;;;;;;;23.27;57.65;100691.52;1725682;81;21073;-54
2021/06/20 03:42:40;;;;;;;5.15;1.95;;;;;;;23.13;57.86;100681.20;1724093;81;21010;-56
2021/06/20 03:45:08;;;;;;;6.10;2.02;;;;;;;22.98;58.12;100674.59;1737375;80;21072;-62
2021/06/20 03:47:36;;;;;;;7.75;1.62;;;;;;;22.86;58.76;100682.88;1710904;80;21100;-60
2021/06/20 03:50:04;;;;;;;6.47;1.85;;;;;;;22.84;58.62;100680.39;1739609;80;21060;-60
2021/06/20 03:52:32;;;;;;;7.58;1.77;;;;;;;22.88;58.93;100675.45;1738664;80;21088;-61
2021/06/20 03:54:59;;;;;;;3.72;1.60;;;;;;;22.89;59.07;100674.44;1734770;80;22300;-57
2021/06/20 03:57:25;;;;;;;4.25;1.90;;;;;;;22.84;59.23;100677.70;1739870;80;21060;-56
2021/06/20 03:59:52;;;;;;;6.22;1.85;;;;;;;22.77;59.23;100670.13;1736784;80;22734;-57
2021/06/20 04:02:19;;;;;;;5.53;1.98;;;;;;;22.71;59.37;100658.84;1741475;80;20984;-57
2021/06/20 04:04:46;;;;;;;4.92;2.05;;;;;;;22.66;59.34;100655.92;1716705;80;21547;-57
2021/06/20 04:07:13;;;;;;;4.95;1.87;;;;;;;22.61;59.22;100653.81;1738857;80;21040;-57
2021/06/20 04:09:41;;;;;;;4.50;1.70;;;;;;;22.57;59.44;100654.72;1738871;80;21143;-57
2021/06/20 04:12:13;;;;;;;3.60;1.75;;;;;;;22.56;59.72;100658.94;1737880;80;21736;-58
2021/06/20 04:14:40;;;;;;;8.55;2.17;;;;;;;22.60;59.63;100659.70;1741445;80;21080;-60
2021/06/20 04:17:07;;;;;;;4.10;1.40;;;;;;;22.69;59.18;100648.30;1738299;80;21085;-58
2021/06/20 04:19:34;;;;;;;4.50;1.87;;;;;;;22.69;59.38;100654.19;1738657;80;21057;-58
2021/06/20 04:22:01;;;;;;;7.20;1.65;;;;;;;22.68;58.93;100648.50;1741156;80;21148;-60
2021/06/20 04:24:28;;;;;;;8.60;1.90;;;;;;;22.67;58.66;100645.00;1696661;82;21133;-60
2021/06/20 04:26:54;;;;;;;7.65;1.85;;;;;;;22.68;58.08;100639.11;1737504;80;21455;-59
2021/06/20 04:29:21;;;;;;;9.78;1.60;;;;;;;22.66;57.78;100637.96;1740331;80;21697;-59
2021/06/20 04:31:47;;;;;;;2.98;1.40;;;;;;;22.64;58.18;100638.67;1713837;82;21005;-57
2021/06/20 04:34:15;;;;;;;5.30;1.20;;;;;;;22.64;58.13;100630.63;1722539;81;21090;-58
2021/06/20 04:36:41;;;;;;;3.47;1.40;;;;;;;22.65;58.26;100634.98;1738916;80;21135;-58
2021/06/20 04:39:08;;;;;;;4.65;1.42;;;;;;;22.67;58.04;100634.79;1735428;80;21852;-58
2021/06/20 04:41:36;;;;;;;4.00;1.85;;;;;;;22.69;57.99;100642.12;1736367;80;21349;-54
2021/06/20 04:44:05;;;;;;;4.20;1.50;;;;;;;22.73;58.17;100637.52;1740571;80;21095;-53
2021/06/20 04:46:36;;;;;;;3.47;1.35;;;;;;;22.84;57.67;100649.53;1724041;81;21875;-54
2021/06/20 04:49:08;;;;;;;5.87;1.60;;;;;;;22.98;57.41;100649.95;1696534;81;21088;-55
2021/06/20 04:51:39;;;;;;;6.47;1.50;;;;;;;23.13;57.00;100654.37;1724133;81;21153;-54
2021/06/20 04:54:08;;;;;;;5.62;1.37;;;;;;;23.20;56.99;100652.56;1721480;81;22740;-54
2021/06/20 04:56:35;;;;;;;5.55;1.67;;;;;;;23.27;56.83;100639.17;1724305;81;21436;-55
2021/06/20 04:59:01;;;;;;;3.85;1.42;;;;;;;23.38;56.10;100643.95;1721838;81;21121;-53
2021/06/20 05:01:27;;;;;;;3.98;1.22;;;;;;;23.43;55.92;100632.61;1720949;81;21784;-52
2021/06/20 05:03:56;;;;;;;4.47;1.70;;;;;;;23.48;55.62;100632.30;1723760;81;21148;-54
2021/06/20 05:06:22;;;;;;;3.52;1.20;;;;;;;23.56;55.95;100633.99;1737423;80;21070;-54
2021/06/20 05:08:49;;;;;;;3.90;1.75;;;;;;;23.65;55.42;100640.00;1717149;80;21549;-54
2021/06/20 05:11:16;;;;;;;4.45;1.45;;;;;;;23.74;55.13;100638.80;1738009;80;21123;-56
2021/06/20 05:13:42;;;;;;;4.47;1.50;;;;;;;23.82;54.88;100631.08;1736777;80;21195;-56
2021/06/20 05:16:11;;;;;;;6.05;1.40;;;;;;;23.91;54.90;100630.69;1734983;80;21437;-55
2021/06/20 05:18:38;;;;;;;4.17;1.50;;;;;;;23.99;54.44;100637.73;1737070;80;21117;-56
2021/06/20 05:21:05;;;;;;;4.55;1.75;;;;;;;24.07;54.54;100637.54;1737164;80;21092;-54
2021/06/20 05:23:31;;;;;;;3.37;1.25;;;;;;;24.15;54.00;100642.39;1737501;80;21088;-54
2021/06/20 05:25:58;;;;;;;7.65;1.82;;;;;;;24.19;54.41;100640.44;1739656;80;21146;-54
2021/06/20 05:28:24;;;;;;;8.05;1.32;;;;;;;24.25;54.00;100639.59;1736470;80;21104;-54
2021/06/20 05:30:51;;;;;;;4.65;1.70;;;;;;;24.28;54.03;100637.84;1709506;82;21316;-54
2021/06/20 05:33:18;;;;;;;3.85;1.35;;;;;;;24.33;54.01;100638.56;1738832;80;21112;-54
2021/06/20 05:35:46;;;;;;;3.58;1.30;;;;;;;24.35;53.77;100639.18;1742009;80;21057;-53
2021/06/20 05:38:14;;;;;;;3.50;1.62;;;;;;;24.36;53.56;100637.31;1718789;80;21720;-54
2021/06/20 05:40:41;;;;;;;3.65;1.35;;;;;;;24.35;52.36;100632.98;1716564;80;21693;-54
2021/06/20 05:43:08;;;;;;;6.78;1.50;;;;;;;24.30;52.94;100636.29;1711741;80;21127;-54
2021/06/20 05:45:35;;;;;;;4.47;1.80;;;;;;;24.25;52.67;100636.08;1741923;80;21409;-54
2021/06/20 05:48:01;;;;;;;3.05;1.42;;;;;;;24.24;52.99;100646.02;1739064;80;21045;-54
2021/06/20 05:50:28;;;;;;;3.55;1.40;;;;;;;24.24;53.16;100641.98;1738492;80;21189;-53
2021/06/20 05:52:55;;;;;;;3.60;1.60;;;;;;;24.28;53.44;100647.25;1736758;80;21057;-53
2021/06/20 05:55:21;;;;;;;2.87;1.37;;;;;;;24.33;53.39;100651.20;1723429;81;21108;-54
2021/06/20 05:57:48;;;;;;;3.70;1.45;;;;;;;24.37;53.33;100655.11;1723190;81;21512;-54
2021/06/20 06:00:16;;;;;;;5.33;1.90;;;;;;;24.39;53.11;100652.51;1725577;81;21531;-54
2021/06/20 06:02:42;;;;;;;3.52;1.40;;;;;;;24.41;52.93;100647.77;1736648;80;21105;-54
2021/06/20 06:05:09;;;;;;;6.10;1.55;;;;;;;24.38;53.04;100657.59;1715273;80;21062;-54
2021/06/20 06:07:36;;;;;;;4.45;1.32;;;;;;;24.37;53.80;100661.31;1738549;80;21084;-53
2021/06/20 06:10:05;;;;;;;3.20;1.20;;;;;;;24.37;53.50;100666.69;1739063;80;21685;-54
2021/06/20 06:12:31;;;;;;;3.00;1.27;;;;;;;24.40;53.62;100660.08;1736599;80;21068;-54
2021/06/20 06:14:58;;;;;;;4.10;1.75;;;;;;;24.41;52.96;100652.30;1725623;81;21150;-54
2021/06/20 06:17:25;;;;;;;5.50;1.45;;;;;;;24.40;53.40;100652.83;1722209;81;21093;-54
2021/06/20 06:19:54;;;;;;;5.53;1.42;;;;;;;24.38;53.50;100649.53;1723612;81;21568;-53
2021/06/20 06:22:21;;;;;;;5.12;1.20;;;;;;;24.39;53.49;100649.00;1725969;81;21371;-54
2021/06/20 06:24:48;;;;;;;4.75;1.40;;;;;;;24.42;53.23;100655.31;1724446;81;21067;-53
2021/06/20 06:27:15;;;;;;;7.37;1.42;;;;;;;24.46;52.89;100656.54;1724503;81;21128;-54
2021/06/20 06:29:41;;;;;;;3.47;1.50;;;;;;;24.53;52.65;100652.50;1724337;81;21580;-53
2021/06/20 06:32:09;;;;;;;2.70;1.20;;;;;;;24.60;52.20;100653.38;1724233;81;21175;-53
2021/06/20 06:34:36;;;;;;;4.22;1.30;;;;;;;24.68;51.78;100643.74;1723473;81;22634;-53
2021/06/20 06:37:03;;;;;;;4.97;1.57;;;;;;;24.77;52.18;100641.66;1724521;81;21160;-54
2021/06/20 06:39:30;;;;;;;3.77;1.50;;;;;;;24.83;52.09;100647.02;1723894;81;21137;-53
2021/06/20 06:41:58;;;;;;;5.90;1.72;;;;;;;24.90;52.00;100649.70;1722923;81;21172;-53
2021/06/20 06:44:25;;;;;;;3.92;1.45;;;;;;;24.98;51.97;100651.31;1725425;81;21132;-54
2021/06/20 06:46:52;;;;;;;5.42;1.40;;;;;;;25.03;51.85;100652.35;1698636;81;21164;-53
2021/06/20 06:49:20;;;;;;;3.12;1.40;;;;;;;25.08;51.30;100649.53;1723993;81;21096;-54
2021/06/20 06:51:47;;;;;;;4.22;1.87;;;;;;;25.08;51.17;100643.61;1695548;81;21133;-54
2021/06/20 06:54:13;;;;;;;3.87;1.50;;;;;;;25.09;50.70;100645.81;1721254;81;21161;-53
2021/06/20 06:56:40;;;;;;;3.58;1.45;;;;;;;25.07;51.20;100638.47;1725644;81;21050;-54
2021/06/20 06:59:07;;;;;;;5.47;2.08;;;;;;;25.08;51.26;100633.37;1697433;81;21447;-54
2021/06/20 07:01:33;;;;;;;3.92;1.52;;;;;;;25.10;51.71;100634.83;1721084;81;21096;-54
2021/06/20 07:03:59;;;;;;;8.23;1.32;;;;;;;25.12;51.63;100630.05;1724696;81;21097;-54
2021/06/20 07:06:26;;;;;;;4.90;1.65;;;;;;;25.12;51.24;100629.23;1739588;80;21068;-54
2021/06/20 07:08:53;;;;;;;3.80;1.32;;;;;;;25.12;51.60;100623.33;1692926;80;21132;-55
2021/06/20 07:11:20;;;;;;;2.90;1.40;;;;;;;25.12;51.24;100626.55;1740099;80;21560;-55
2021/06/20 07:13:46;;;;;;;3.75;1.32;;;;;;;25.10;50.79;100625.91;1715103;80;21107;-55
2021/06/20 07:16:14;;;;;;;2.55;1.20;;;;;;;25.07;50.50;100627.17;1686598;82;21102;-54
2021/06/20 07:18:40;;;;;;;5.08;1.15;;;;;;;25.06;50.59;100627.38;1719290;80;21060;-54
2021/06/20 07:21:07;;;;;;;4.67;1.35;;;;;;;25.03;50.29;100624.09;1715901;80;21087;-54
2021/06/20 07:23:33;;;;;;;3.12;1.27;;;;;;;25.01;49.85;100626.14;1720658;81;21085;-54
2021/06/20 07:26:01;;;;;;;3.05;1.25;;;;;;;24.96;50.40;100625.13;1713807;82;21147;-54
2021/06/20 07:28:28;;;;;;;4.40;1.05;;;;;;;24.89;50.00;100631.88;1713998;82;21741;-54
2021/06/20 07:30:54;;;;;;;4.22;1.27;;;;;;;24.82;50.01;100628.39;1702114;82;21131;-55
2021/06/20 07:33:21;;;;;;;2.70;1.10;;;;;;;24.76;50.13;100634.08;1727560;81;22545;-54
2021/06/20 07:35:57;;;;;;;2.58;0.95;;;;;;;24.73;50.49;100636.37;1692713;82;21081;-54
2021/06/20 07:38:22;;;;;;;3.20;1.20;;;;;;;24.71;50.38;100626.34;1731481;81;21137;-57
2021/06/20 07:40:50;;;;;;;4.15;1.42;;;;;;;24.70;50.84;100626.05;1731951;81;21154;-54
2021/06/20 07:43:16;;;;;;;4.78;1.30;;;;;;;24.70;51.03;100624.17;1701913;81;21469;-54
2021/06/20 07:45:44;;;;;;;4.83;1.55;;;;;;;24.74;51.07;100611.94;1693468;82;21079;-54
2021/06/20 07:50:43;;;;;;;3.00;1.00;;;;;;;24.92;51.37;100616.66;1866647;75;22652;-54
2021/06/20 07:53:09;;;;;;;3.77;1.30;;;;;;;25.07;51.25;100615.06;1834568;76;21038;-56
2021/06/20 07:55:37;;;;;;;3.10;1.35;;;;;;;25.26;51.04;100607.11;1836608;77;21185;-54
2021/06/20 07:58:03;;;;;;;3.50;1.20;;;;;;;25.43;50.74;100598.05;1833500;75;21005;-54
2021/06/20 08:00:30;;;;;;;4.35;1.30;;;;;;;25.58;50.22;100591.83;1834788;75;21440;-54
2021/06/20 08:02:56;;;;;;;4.87;1.12;;;;;;;25.72;48.60;100583.13;1836608;77;21107;-54
2021/06/20 08:05:22;;;;;;;3.22;1.20;;;;;;;25.78;48.46;100580.92;1814727;76;20986;-54
2021/06/20 08:07:50;;;;;;;5.87;1.42;;;;;;;25.82;48.03;100576.73;1833716;76;21118;-54
2021/06/20 08:10:16;;;;;;;2.62;1.00;;;;;;;25.85;48.47;100574.95;1813008;76;21101;-54
2021/06/20 08:12:43;;;;;;;6.10;1.45;;;;;;;25.92;48.50;100570.86;1834395;75;21080;-54
2021/06/20 08:15:10;;;;;;;3.52;1.10;;;;;;;25.97;48.22;100569.70;1833143;77;21092;-54
2021/06/20 08:17:37;;;;;;;4.03;1.15;;;;;;;26.01;48.43;100568.73;1835251;75;21065;-54
2021/06/20 08:20:06;;;;;;;7.10;1.47;;;;;;;26.06;48.24;100570.27;1832091;76;21096;-54
2021/06/20 08:22:32;;;;;;;2.77;1.10;;;;;;;26.10;48.37;100572.81;1810889;76;21074;-54
2021/06/20 08:25:00;;;;;;;3.75;1.27;;;;;;;26.13;47.83;100575.08;1833584;75;21136;-54
2021/06/20 08:27:27;;;;;;;5.47;1.50;;;;;;;26.16;47.97;100570.59;1835075;75;21172;-54
2021/06/20 08:29:55;;;;;;;5.12;1.47;;;;;;;26.20;47.92;100579.06;1835561;75;21070;-54
2021/06/20 08:32:22;;;;;;;3.00;1.00;;;;;;;26.26;48.05;100564.67;1834544;75;21068;-54
2021/06/20 08:34:51;;;;;;;4.22;1.60;;;;;;;26.30;47.22;100559.15;1836407;77;21721;-54
2021/06/20 08:37:17;;;;;;;2.58;1.30;;;;;;;26.35;47.44;100553.09;1837257;75;21620;-53
2021/06/20 08:39:44;;;;;;;3.30;1.20;;;;;;;26.38;46.78;100550.77;1835086;75;21076;-54
2021/06/20 08:42:10;;;;;;;5.40;1.50;;;;;;;26.42;46.20;100543.05;1784955;78;21497;-53
2021/06/20 08:44:37;;;;;;;3.92;1.00;;;;;;;26.45;46.33;100535.33;1800186;77;21207;-53
2021/06/20 08:47:04;;;;;;;4.40;1.32;;;;;;;26.50;46.08;100540.88;1771270;78;21080;-53
2021/06/20 08:49:32;;;;;;;4.62;1.30;;;;;;;26.56;46.63;100533.74;1767392;79;21120;-53
2021/06/20 08:51:59;;;;;;;5.87;1.55;;;;;;;26.61;46.35;100531.22;1776148;78;21042;-53
2021/06/20 08:54:27;;;;;;;4.00;1.72;;;;;;;26.67;46.00;100522.23;1776340;78;20926;-53
2021/06/20 08:56:54;;;;;;;2.87;1.00;;;;;;;26.71;46.47;100530.70;1804670;78;21070;-54
2021/06/20 08:59:23;;;;;;;4.45;1.10;;;;;;;26.79;45.72;100534.98;1785934;77;21708;-55
2021/06/20 09:01:51;;;;;;;3.27;1.25;;;;;;;26.84;45.75;100529.19;1780987;79;21096;-54
2021/06/20 09:04:34;;;;;;;2.98;1.10;;;;;;;26.90;45.63;100529.33;1775624;78;21456;-54
2021/06/20 09:07:04;;;;;;;3.02;1.15;;;;;;;26.96;45.37;100529.24;1744351;80;21482;-54
2021/06/20 09:09:34;;;;;;;3.65;1.10;;;;;;;27.02;44.52;100526.17;1777894;78;21149;-54
2021/06/20 09:12:13;;;;;;;4.87;1.40;;;;;;;27.10;44.65;100530.42;1772161;79;21062;-53
2021/06/20 09:14:45;;;;;;;2.83;1.00;;;;;;;27.16;43.74;100530.33;1772899;78;21107;-54
2021/06/20 09:17:13;;;;;;;4.67;0.93;;;;;;;27.22;43.47;100540.76;1772167;79;21556;-54
2021/06/20 09:19:41;;;;;;;5.35;1.10;;;;;;;27.26;44.31;100540.59;1754642;80;21551;-54
2021/06/20 09:22:10;;;;;;;5.72;1.25;;;;;;;27.32;43.80;100542.41;1772364;78;21100;-54
2021/06/20 09:24:38;;;;;;;5.85;1.10;;;;;;;27.39;44.01;100547.72;1753528;80;21086;-54
2021/06/20 09:27:07;;;;;;;2.95;1.20;;;;;;;27.46;44.06;100547.62;1773669;79;21118;-54
2021/06/20 09:29:38;;;;;;;3.37;1.00;;;;;;;27.52;44.30;100540.77;1771824;78;21114;-54
2021/06/20 09:32:10;;;;;;;2.80;1.07;;;;;;;27.57;43.97;100535.99;1775064;79;21113;-53
2021/06/20 09:34:48;;;;;;;4.30;1.20;;;;;;;27.61;43.25;100529.90;1747094;80;21019;-54
2021/06/20 09:37:15;;;;;;;5.67;1.60;;;;;;;27.65;42.75;100524.84;1802073;77;21538;-53
2021/06/20 09:39:41;;;;;;;3.40;1.75;;;;;;;27.67;42.41;100523.27;1778271;78;21149;-54
2021/06/20 09:42:12;;;;;;;3.45;1.50;;;;;;;27.67;42.76;100519.21;1775589;80;21418;-53
2021/06/20 09:44:52;;;;;;;2.95;0.95;;;;;;;27.68;42.98;100520.88;1800467;77;21050;-54
2021/06/20 09:47:21;;;;;;;3.67;1.30;;;;;;;27.71;42.89;100519.05;1768101;79;21104;-53
2021/06/20 09:49:49;;;;;;;4.17;1.70;;;;;;;27.74;42.37;100517.22;1798577;78;21533;-53
2021/06/20 09:52:33;;;;;;;4.22;1.17;;;;;;;27.77;42.21;100513.55;1777678;79;21401;-53
2021/06/20 09:55:03;;;;;;;4.97;1.10;;;;;;;27.82;42.14;100517.41;1766172;78;21085;-53
2021/06/20 09:57:45;;;;;;;4.20;0.90;;;;;;;27.88;43.76;100517.84;1797778;77;21144;-53
2021/06/20 10:00:13;;;;;;;4.08;1.02;;;;;;;28.00;42.93;100513.81;1800961;78;21130;-53
2021/06/20 10:02:42;;;;;;;3.40;1.07;;;;;;;28.12;42.55;100513.27;1775987;78;21076;-53
2021/06/20 10:05:10;;;;;;;3.45;0.98;;;;;;;28.25;42.45;100513.56;1746709;80;21042;-53
2021/06/20 10:07:36;;;;;;;4.03;1.30;;;;;;;28.34;42.78;100505.36;1771694;78;21092;-54
2021/06/20 10:10:06;;;;;;;5.47;0.90;;;;;;;28.41;41.29;100504.72;1773410;79;21529;-54
2021/06/20 10:12:32;;;;;;;2.80;1.10;;;;;;;28.45;40.92;100499.11;1772867;79;21137;-54
2021/06/20 10:15:02;;;;;;;3.90;1.20;;;;;;;28.49;40.75;100496.75;1775258;78;21086;-54
2021/06/20 10:17:44;;;;;;;3.33;1.12;;;;;;;28.49;39.63;100491.33;1777826;78;21085;-54
2021/06/20 10:20:13;;;;;;;3.60;1.15;;;;;;;28.49;40.20;100496.20;1775283;78;21730;-53
2021/06/20 10:22:44;;;;;;;5.50;1.25;;;;;;;28.48;40.82;100486.46;1774075;78;21502;-53
2021/06/20 10:25:23;;;;;;;2.45;0.90;;;;;;;28.52;40.86;100484.91;1775616;79;21824;-53
2021/06/20 10:28:07;;;;;;;4.30;1.07;;;;;;;28.57;41.16;100484.77;1772787;79;21400;-53
2021/06/20 10:30:34;;;;;;;2.95;0.95;;;;;;;28.64;41.04;100482.19;1772079;79;20995;-54
2021/06/20 10:33:18;;;;;;;6.03;1.22;;;;;;;28.70;40.04;100473.66;1772548;79;21152;-54
2021/06/20 10:35:57;;;;;;;3.52;1.25;;;;;;;28.76;39.51;100484.86;1780527;78;21049;-53
2021/06/20 10:38:37;;;;;;;3.70;1.20;;;;;;;28.82;40.29;100488.51;1783666;80;21101;-54
2021/06/20 10:41:06;;;;;;;4.42;1.30;;;;;;;28.89;40.08;100485.11;1771374;78;21077;-53
2021/06/20 10:43:34;;;;;;;3.30;1.17;;;;;;;28.98;39.95;100483.64;1779564;78;21038;-54
2021/06/20 10:46:02;;;;;;;2.72;0.98;;;;;;;29.06;40.11;100475.13;1782264;78;21061;-53
2021/06/20 10:48:35;;;;;;;4.65;1.00;;;;;;;29.13;39.87;100466.84;1753033;78;21149;-53
2021/06/20 10:51:01;;;;;;;4.78;1.30;;;;;;;29.18;39.23;100460.19;1775580;79;22456;-54
2021/06/20 10:53:28;;;;;;;6.45;1.20;;;;;;;29.24;39.58;100455.70;1802720;77;21073;-54
2021/06/20 10:55:59;;;;;;;3.08;1.00;;;;;;;29.29;39.78;100450.37;1794644;78;21579;-54
2021/06/20 10:58:30;;;;;;;4.40;1.30;;;;;;;29.32;39.88;100444.46;1744004;78;21123;-54
2021/06/20 11:01:13;;;;;;;4.97;0.95;;;;;;;29.39;40.42;100442.41;1769771;78;21093;-54
2021/06/20 11:03:41;;;;;;;3.50;1.10;;;;;;;29.48;39.34;100430.61;1795750;77;21140;-53
2021/06/20 11:06:13;;;;;;;4.65;1.27;;;;;;;29.56;38.83;100435.61;1796570;77;21692;-53
2021/06/20 11:08:59;;;;;;;3.47;1.42;;;;;;;29.62;39.36;100438.70;1771032;78;21519;-53
2021/06/20 11:11:32;;;;;;;4.97;0.93;;;;;;;29.69;39.48;100443.95;1791201;78;21061;-53
2021/06/20 11:14:06;;;;;;;4.65;1.05;;;;;;;29.80;38.07;100441.68;1804316;77;21548;-53
2021/06/20 11:16:37;;;;;;;4.72;1.00;;;;;;;29.88;37.03;100434.21;1790293;77;21096;-52
2021/06/20 11:19:23;;;;;;;3.40;0.93;;;;;;;29.92;36.58;100444.29;1777404;78;21858;-50
2021/06/20 11:21:56;;;;;;;4.45;1.00;;;;;;;30.00;37.06;100452.00;1775217;78;28304;-53
2021/06/20 11:24:28;;;;;;;3.20;0.90;;;;;;;30.06;37.56;100446.13;1776613;78;21149;-53
2021/06/20 11:27:10;;;;;;;3.02;1.17;;;;;;;30.15;37.52;100454.09;1780248;78;21074;-54
2021/06/20 11:29:51;;;;;;;3.15;1.10;;;;;;;30.24;37.02;100450.95;1798687;78;21132;-53
2021/06/20 11:32:31;;;;;;;2.72;0.88;;;;;;;30.33;36.27;100454.88;1801783;77;21144;-53
2021/06/20 11:35:04;;;;;;;4.85;0.98;;;;;;;30.39;36.36;100449.81;1775005;78;21659;-54
2021/06/20 11:37:42;;;;;;;5.00;0.80;;;;;;;30.48;35.63;100456.45;1795773;77;21649;-54
2021/06/20 11:40:12;;;;;;;3.65;1.00;;;;;;;30.54;36.09;100456.77;1742164;79;20994;-54
2021/06/20 11:42:41;;;;;;;5.00;1.55;;;;;;;30.65;35.87;100455.52;1772515;78;21016;-53
2021/06/20 11:45:19;;;;;;;2.40;0.98;;;;;;;30.74;36.92;100456.72;1780174;78;22113;-53